Pagina principală
METAR-TAF:

METAR-TAF

Aeroporturi :

Majors Airport

Greenville, Texas, Statele Unite ale Americii

Latitudine: 33-04N, longitudine: 096-04W, elevație: 163 m

Observații meteo curente

Raportul a fost făcut în urmă cu 28 de minute, la 00:55 UTC
Vânt 8 kt de la Est/Sud-est
Temperatură 30°C
Umiditate 62%
Presiune 1012 hPa
Vizibilitate: 16.1 km
Cer senin

METAR: KGVT 190055Z AUTO 12008KT 10SM CLR 30/22 A2988 RMK AO2 TSNO T02970218

Ora: 20:23 (01:23 UTC)


TAF: lipsă

Observații și prognoze meteo pentru peste 4.000 de aeroporturi (rapoarte METAR și TAF).

Stațiile disponibile sunt reprezentate pe hartă prin puncte galbene și roșii.

Țineți indicatorul mouse-ului pe punctul dorit pentru a vedea denumirea stației.

Apoi, faceți clic pentru a vedea observațiile și prognozele meteorologice.

Pentru a schimba harta: Pentru mărire, faceți clic pe butoanele verzi cu cruce neagră; pentru micșorare, pe butonul verde cu o liniuță; pentru hărți învecinate, pe săgețile verzi.


METAR-TAF: